createdAt,value
2023-02-27T00:00:40.842Z,-1.1
2023-02-27T00:05:40.832Z,-1.2
2023-02-27T00:10:40.824Z,-1.2
2023-02-27T00:15:41.080Z,-1.3
2023-02-27T00:20:40.834Z,-1.4
2023-02-27T00:25:40.843Z,-1.4
2023-02-27T00:30:40.860Z,-1.5
2023-02-27T00:35:40.842Z,-1.6
2023-02-27T00:40:40.840Z,-1.6
2023-02-27T00:45:40.858Z,-1.6
2023-02-27T00:50:40.844Z,-1.7
2023-02-27T00:55:40.840Z,-1.7
2023-02-27T01:00:40.898Z,-1.8
2023-02-27T01:05:40.877Z,-1.8
2023-02-27T01:10:40.853Z,-1.8
2023-02-27T01:15:40.915Z,-1.9
2023-02-27T01:20:40.865Z,-1.9
2023-02-27T01:25:40.874Z,-1.8
2023-02-27T01:30:40.959Z,-1.7
2023-02-27T01:35:40.895Z,-1.6
2023-02-27T01:40:40.874Z,-1.6
2023-02-27T01:45:40.914Z,-1.6
2023-02-27T01:50:40.899Z,-1.7
2023-02-27T01:55:40.883Z,-1.7
2023-02-27T02:00:40.894Z,-1.8
2023-02-27T02:05:40.893Z,-1.9
2023-02-27T02:10:40.896Z,-2.0
2023-02-27T02:15:40.940Z,-2.0
2023-02-27T02:20:40.898Z,-2.1
2023-02-27T02:25:40.906Z,-2.2
2023-02-27T02:30:41.047Z,-2.2
2023-02-27T02:35:40.915Z,-2.2
2023-02-27T02:40:40.905Z,-2.2
2023-02-27T02:45:40.952Z,-2.3
2023-02-27T02:50:40.909Z,-2.2
2023-02-27T02:55:40.918Z,-2.2
2023-02-27T03:00:40.922Z,-2.4
2023-02-27T03:05:40.926Z,-2.4
2023-02-27T03:10:40.923Z,-2.5
2023-02-27T03:15:40.986Z,-2.5
2023-02-27T03:20:40.956Z,-2.4
2023-02-27T03:25:40.928Z,-2.5
2023-02-27T03:30:41.005Z,-2.5
2023-02-27T03:35:40.952Z,-2.5
2023-02-27T03:40:40.934Z,-2.5
2023-02-27T03:45:40.944Z,-2.6
2023-02-27T03:50:40.935Z,-2.6
2023-02-27T03:55:40.943Z,-2.6
2023-02-27T04:00:40.950Z,-2.7
2023-02-27T04:05:40.956Z,-2.7
2023-02-27T04:10:40.955Z,-2.8
2023-02-27T04:15:40.989Z,-2.8
2023-02-27T04:20:40.952Z,-2.8
2023-02-27T04:25:40.977Z,-2.9
2023-02-27T04:30:40.966Z,-2.9
2023-02-27T04:35:40.977Z,-3.0
2023-02-27T04:40:40.966Z,-3.0
2023-02-27T04:45:41.050Z,-2.9
2023-02-27T04:50:40.975Z,-2.9
2023-02-27T04:55:40.987Z,-3.0
2023-02-27T05:00:40.980Z,-3.0
2023-02-27T05:05:40.994Z,-3.0
2023-02-27T05:10:40.990Z,-3.0
2023-02-27T05:15:41.088Z,-3.1
2023-02-27T05:20:40.986Z,-3.1
2023-02-27T05:25:41.000Z,-3.2
2023-02-27T05:30:40.990Z,-3.2
2023-02-27T05:35:41.036Z,-3.0
2023-02-27T05:40:40.996Z,-3.0
2023-02-27T05:45:41.094Z,-3.1
2023-02-27T05:50:40.995Z,-3.2
2023-02-27T05:55:41.015Z,-3.2
2023-02-27T06:00:41.013Z,-3.3
2023-02-27T06:05:41.023Z,-3.3
2023-02-27T06:10:41.025Z,-3.3
2023-02-27T06:15:41.047Z,-3.4
2023-02-27T06:20:41.027Z,-3.4
2023-02-27T06:25:41.019Z,-3.3
2023-02-27T06:30:41.114Z,-3.2
2023-02-27T06:35:41.111Z,-3.1
2023-02-27T06:40:41.039Z,-3.2
2023-02-27T06:45:41.051Z,-3.0
2023-02-27T06:50:41.036Z,-3.2
2023-02-27T06:55:41.032Z,-3.2
2023-02-27T07:00:41.056Z,-3.2
2023-02-27T07:05:41.067Z,-3.1
2023-02-27T07:07:36.417Z,-3.1
2023-02-27T07:10:53.304Z,-3.1
2023-02-27T07:15:53.346Z,-3.1
2023-02-27T07:20:53.309Z,-3.1
2023-02-27T07:25:53.308Z,-3.0
2023-02-27T07:30:53.348Z,-3.0
2023-02-27T07:35:53.419Z,-2.8
2023-02-27T07:40:53.310Z,-2.2
2023-02-27T07:45:53.337Z,-1.9
2023-02-27T07:50:53.316Z,-1.7
2023-02-27T07:55:53.328Z,-1.5
2023-02-27T08:00:53.343Z,-1.5
2023-02-27T08:05:53.341Z,-1.3
2023-02-27T08:10:53.334Z,-1.1
2023-02-27T08:15:53.409Z,-0.9
2023-02-27T08:20:53.338Z,-0.9
2023-02-27T08:25:53.359Z,-0.8
2023-02-27T08:30:53.350Z,-0.5
2023-02-27T08:35:53.386Z,-0.5
2023-02-27T08:40:53.350Z,-0.6
2023-02-27T08:45:53.410Z,-0.4
2023-02-27T08:50:53.355Z,-0.4
2023-02-27T08:55:53.362Z,-0.5
2023-02-27T09:00:53.418Z,-0.3
2023-02-27T09:05:53.373Z,0.0
2023-02-27T09:10:53.360Z,0.3
2023-02-27T09:15:53.386Z,0.6
2023-02-27T09:20:53.375Z,0.9
2023-02-27T09:25:53.403Z,1.4
2023-02-27T09:30:53.371Z,1.9
2023-02-27T09:35:53.513Z,2.3
2023-02-27T09:40:53.387Z,2.8
2023-02-27T09:45:53.458Z,3.0
2023-02-27T09:50:53.372Z,3.1
2023-02-27T09:55:53.383Z,3.3
2023-02-27T10:00:53.382Z,3.3
2023-02-27T10:05:53.403Z,3.6
2023-02-27T10:10:53.397Z,3.8
2023-02-27T10:15:53.418Z,4.0
2023-02-27T10:20:53.401Z,4.1
2023-02-27T10:25:53.433Z,4.1
2023-02-27T10:30:53.443Z,4.3
2023-02-27T10:35:53.451Z,4.2
2023-02-27T10:40:53.414Z,4.5
2023-02-27T10:45:53.492Z,4.3
2023-02-27T10:50:53.428Z,4.2
2023-02-27T10:55:53.414Z,4.0
2023-02-27T11:00:53.424Z,3.9
2023-02-27T11:05:53.436Z,3.9
2023-02-27T11:10:53.421Z,4.0
2023-02-27T11:15:53.473Z,4.2
2023-02-27T11:20:53.431Z,4.4
2023-02-27T11:25:53.430Z,4.5
2023-02-27T11:30:53.479Z,4.7
2023-02-27T11:35:57.873Z,4.7
2023-02-27T11:40:53.439Z,5.0
2023-02-27T11:46:12.136Z,5.5
2023-02-27T11:50:53.453Z,5.9
2023-02-27T11:55:53.447Z,6.0
2023-02-27T12:00:53.455Z,5.8
2023-02-27T12:05:53.476Z,5.8
2023-02-27T12:10:55.641Z,5.9
2023-02-27T12:15:53.530Z,6.1
2023-02-27T12:20:53.473Z,5.7
2023-02-27T12:25:53.473Z,5.6
2023-02-27T12:30:53.471Z,5.5
2023-02-27T12:35:53.575Z,5.9
2023-02-27T12:40:53.476Z,6.5
2023-02-27T12:45:53.615Z,6.8
2023-02-27T12:50:53.468Z,6.3
2023-02-27T12:55:53.483Z,6.0
2023-02-27T13:00:53.543Z,5.9
2023-02-27T13:05:53.503Z,5.9
2023-02-27T13:10:53.493Z,5.8
2023-02-27T13:15:53.516Z,5.7
2023-02-27T13:20:53.508Z,5.4
2023-02-27T13:25:53.500Z,5.8
2023-02-27T13:30:53.506Z,6.2
2023-02-27T13:35:53.554Z,6.3
2023-02-27T13:40:53.517Z,6.0
2023-02-27T13:45:53.626Z,6.3
2023-02-27T13:50:53.536Z,6.6
2023-02-27T13:55:53.618Z,6.8
2023-02-27T14:00:53.532Z,6.4
2023-02-27T14:05:53.592Z,6.8
2023-02-27T14:10:53.520Z,7.1
2023-02-27T14:15:53.660Z,7.5
2023-02-27T14:20:53.534Z,6.6
2023-02-27T14:25:53.548Z,6.0
2023-02-27T14:30:53.592Z,5.9
2023-02-27T14:35:53.612Z,5.9
2023-02-27T14:40:53.540Z,6.2
2023-02-27T14:45:53.660Z,6.5
2023-02-27T14:50:53.823Z,6.5
2023-02-27T14:55:53.553Z,6.5
2023-02-27T15:00:53.558Z,6.3
2023-02-27T15:05:53.568Z,6.4
2023-02-27T15:10:53.575Z,6.4
2023-02-27T15:15:53.630Z,6.7
2023-02-27T15:20:53.567Z,6.6
2023-02-27T15:25:53.580Z,6.3
2023-02-27T15:30:53.689Z,5.9
2023-02-27T15:35:53.614Z,5.6
2023-02-27T15:40:53.573Z,5.6
2023-02-27T15:45:53.601Z,5.6
2023-02-27T15:50:53.592Z,5.6
2023-02-27T15:55:53.589Z,5.7
2023-02-27T16:00:53.675Z,5.7
2023-02-27T16:05:53.699Z,5.7
2023-02-27T16:10:53.598Z,5.5
2023-02-27T16:15:53.662Z,5.4
2023-02-27T16:20:53.597Z,5.3
2023-02-27T16:25:53.600Z,5.2
2023-02-27T16:30:53.597Z,5.1
2023-02-27T16:35:53.636Z,5.1
2023-02-27T16:40:53.716Z,4.8
2023-02-27T16:45:53.656Z,4.7
2023-02-27T16:50:53.614Z,4.6
2023-02-27T16:55:53.609Z,4.4
2023-02-27T17:00:53.637Z,4.3
2023-02-27T17:05:53.647Z,4.1
2023-02-27T17:10:53.642Z,3.9
2023-02-27T17:15:53.688Z,3.7
2023-02-27T17:20:53.631Z,3.6
2023-02-27T17:25:53.638Z,3.5
2023-02-27T17:30:53.692Z,3.4
2023-02-27T17:35:53.723Z,3.3
2023-02-27T17:40:53.642Z,2.9
2023-02-27T17:45:53.732Z,2.8
2023-02-27T17:50:53.652Z,2.4
2023-02-27T17:55:53.646Z,2.1
2023-02-27T18:00:53.665Z,2.0
2023-02-27T18:05:53.664Z,1.9
2023-02-27T18:10:53.659Z,1.8
2023-02-27T18:15:53.724Z,1.9
2023-02-27T18:20:53.665Z,2.3
2023-02-27T18:25:53.669Z,2.5
2023-02-27T18:30:53.695Z,2.8
2023-02-27T18:35:53.724Z,2.9
2023-02-27T18:40:53.675Z,2.7
2023-02-27T18:45:53.699Z,2.6
2023-02-27T18:50:53.733Z,2.3
2023-02-27T18:55:53.687Z,2.3
2023-02-27T19:00:53.690Z,2.2
2023-02-27T19:05:53.710Z,2.2
2023-02-27T19:10:53.706Z,2.2
2023-02-27T19:15:53.785Z,2.2
2023-02-27T19:20:54.896Z,2.0
2023-02-27T19:25:53.712Z,1.7
2023-02-27T19:30:53.710Z,1.6
2023-02-27T19:35:53.775Z,1.6
2023-02-27T19:40:53.721Z,1.7
2023-02-27T19:45:53.727Z,1.6
2023-02-27T19:50:53.718Z,1.7
2023-02-27T19:55:53.724Z,1.7
2023-02-27T20:00:53.760Z,1.4
2023-02-27T20:05:53.741Z,1.0
2023-02-27T20:10:53.721Z,0.8
2023-02-27T20:15:53.742Z,0.6
2023-02-27T20:20:53.735Z,0.5
2023-02-27T20:25:53.738Z,0.3
2023-02-27T20:30:53.734Z,0.2
2023-02-27T20:35:53.788Z,0.1
2023-02-27T20:40:53.738Z,0.1
2023-02-27T20:45:53.790Z,0.1
2023-02-27T20:50:53.741Z,-0.0
2023-02-27T20:55:53.754Z,-0.1
2023-02-27T21:00:53.863Z,-0.2
2023-02-27T21:05:53.765Z,-0.3
2023-02-27T21:10:53.759Z,-0.3
2023-02-27T21:15:53.831Z,-0.4
2023-02-27T21:20:53.769Z,-0.4
2023-02-27T21:25:53.785Z,-0.4
2023-02-27T21:30:53.855Z,-0.5
2023-02-27T21:35:53.807Z,-0.6
2023-02-27T21:40:53.772Z,-0.7
2023-02-27T21:45:53.837Z,-0.7
2023-02-27T21:50:53.774Z,-0.8
2023-02-27T21:55:53.776Z,-0.8
2023-02-27T22:00:53.788Z,-0.8
2023-02-27T22:05:53.796Z,-0.9
2023-02-27T22:10:53.790Z,-0.9
2023-02-27T22:15:53.866Z,-0.9
2023-02-27T22:20:53.787Z,-1.0
2023-02-27T22:25:53.801Z,-1.0
2023-02-27T22:30:53.812Z,-1.1
2023-02-27T22:35:53.862Z,-1.0
2023-02-27T22:40:53.802Z,-1.0
2023-02-27T22:45:53.825Z,-0.8
2023-02-27T22:50:53.806Z,-0.7
2023-02-27T22:55:53.816Z,-0.6
2023-02-27T23:00:53.830Z,-0.4
2023-02-27T23:05:53.823Z,-0.3
2023-02-27T23:10:53.822Z,-0.2
2023-02-27T23:15:53.886Z,-0.2
2023-02-27T23:20:53.828Z,0.0
2023-02-27T23:25:53.819Z,0.0
2023-02-27T23:30:53.840Z,0.1
2023-02-27T23:35:53.968Z,0.1
2023-02-27T23:40:53.849Z,0.1
2023-02-27T23:45:53.889Z,0.2
2023-02-27T23:50:53.852Z,0.2
2023-02-27T23:55:53.844Z,0.3
